sensor_id;sensor_type;location;lat;lon;timestamp;pressure;altitude;pressure_sealevel;temperature;humidity
64080;BME280;51042;49.696;10.808;2023-11-21T00:00:42;98845.91;;;6.89;100.00
64080;BME280;51042;49.696;10.808;2023-11-21T00:03:07;98857.22;;;6.91;100.00
64080;BME280;51042;49.696;10.808;2023-11-21T00:05:32;98850.97;;;6.90;100.00
64080;BME280;51042;49.696;10.808;2023-11-21T00:07:58;98852.16;;;6.89;100.00
64080;BME280;51042;49.696;10.808;2023-11-21T00:10:23;98858.78;;;6.88;100.00
64080;BME280;51042;49.696;10.808;2023-11-21T00:12:48;98857.22;;;6.87;100.00
64080;BME280;51042;49.696;10.808;2023-11-21T00:15:14;98859.56;;;6.85;100.00
64080;BME280;51042;49.696;10.808;2023-11-21T00:17:39;98861.13;;;6.86;100.00
64080;BME280;51042;49.696;10.808;2023-11-21T00:20:07;98868.53;;;6.86;100.00
64080;BME280;51042;49.696;10.808;2023-11-21T00:22:36;98870.47;;;6.89;100.00
64080;BME280;51042;49.696;10.808;2023-11-21T00:25:01;98865.00;;;6.89;100.00
64080;BME280;51042;49.696;10.808;2023-11-21T00:27:28;98869.28;;;6.90;100.00
64080;BME280;51042;49.696;10.808;2023-11-21T00:29:54;98871.59;;;6.91;100.00
64080;BME280;51042;49.696;10.808;2023-11-21T00:32:19;98872.38;;;6.92;100.00
64080;BME280;51042;49.696;10.808;2023-11-21T00:34:44;98877.06;;;6.91;100.00
64080;BME280;51042;49.696;10.808;2023-11-21T00:37:09;98875.53;;;6.90;100.00
64080;BME280;51042;49.696;10.808;2023-11-21T00:39:34;98870.44;;;6.92;100.00
64080;BME280;51042;49.696;10.808;2023-11-21T00:42:00;98879.78;;;6.91;100.00
64080;BME280;51042;49.696;10.808;2023-11-21T00:44:25;98877.44;;;6.93;100.00
64080;BME280;51042;49.696;10.808;2023-11-21T00:46:50;98875.53;;;6.90;100.00
64080;BME280;51042;49.696;10.808;2023-11-21T00:49:16;98889.94;;;6.91;100.00
64080;BME280;51042;49.696;10.808;2023-11-21T00:51:41;98893.44;;;6.91;100.00
64080;BME280;51042;49.696;10.808;2023-11-21T00:54:06;98896.16;;;6.91;100.00
64080;BME280;51042;49.696;10.808;2023-11-21T00:56:31;98897.72;;;6.92;100.00
64080;BME280;51042;49.696;10.808;2023-11-21T00:58:56;98900.09;;;6.90;100.00
64080;BME280;51042;49.696;10.808;2023-11-21T01:01:22;98907.84;;;6.92;100.00
64080;BME280;51042;49.696;10.808;2023-11-21T01:03:49;98905.91;;;6.92;100.00
64080;BME280;51042;49.696;10.808;2023-11-21T01:06:15;98914.47;;;6.94;100.00
64080;BME280;51042;49.696;10.808;2023-11-21T01:08:40;98921.84;;;6.97;100.00
64080;BME280;51042;49.696;10.808;2023-11-21T01:11:05;98928.09;;;6.98;100.00
64080;BME280;51042;49.696;10.808;2023-11-21T01:13:33;98921.47;;;6.99;100.00
64080;BME280;51042;49.696;10.808;2023-11-21T01:15:58;98926.53;;;7.01;100.00
64080;BME280;51042;49.696;10.808;2023-11-21T01:18:24;98926.91;;;6.99;100.00
64080;BME280;51042;49.696;10.808;2023-11-21T01:20:50;98928.84;;;7.02;100.00
64080;BME280;51042;49.696;10.808;2023-11-21T01:23:17;98926.50;;;7.04;100.00
64080;BME280;51042;49.696;10.808;2023-11-21T01:25:43;98935.06;;;7.06;100.00
64080;BME280;51042;49.696;10.808;2023-11-21T01:28:08;98933.13;;;7.07;100.00
64080;BME280;51042;49.696;10.808;2023-11-21T01:30:33;98941.31;;;7.07;100.00
64080;BME280;51042;49.696;10.808;2023-11-21T01:32:58;98933.91;;;7.07;100.00
64080;BME280;51042;49.696;10.808;2023-11-21T01:35:24;98930.00;;;7.08;100.00
64080;BME280;51042;49.696;10.808;2023-11-21T01:37:49;98940.13;;;7.04;100.00
64080;BME280;51042;49.696;10.808;2023-11-21T01:40:14;98933.53;;;7.02;100.00
64080;BME280;51042;49.696;10.808;2023-11-21T01:42:40;98936.66;;;7.00;100.00
64080;BME280;51042;49.696;10.808;2023-11-21T01:45:05;98943.28;;;6.99;100.00
64080;BME280;51042;49.696;10.808;2023-11-21T01:47:32;98942.13;;;7.00;100.00
64080;BME280;51042;49.696;10.808;2023-11-21T01:49:58;98948.75;;;6.99;100.00
64080;BME280;51042;49.696;10.808;2023-11-21T01:52:23;98951.84;;;6.97;100.00
64080;BME280;51042;49.696;10.808;2023-11-21T01:54:49;98949.16;;;6.94;100.00
64080;BME280;51042;49.696;10.808;2023-11-21T01:57:15;98947.22;;;6.94;100.00
64080;BME280;51042;49.696;10.808;2023-11-21T01:59:40;98957.72;;;6.92;100.00
64080;BME280;51042;49.696;10.808;2023-11-21T02:02:07;98953.44;;;6.91;100.00
64080;BME280;51042;49.696;10.808;2023-11-21T02:04:36;98957.72;;;6.92;100.00
64080;BME280;51042;49.696;10.808;2023-11-21T02:07:01;98960.47;;;6.92;100.00
64080;BME280;51042;49.696;10.808;2023-11-21T02:09:30;98971.00;;;6.90;100.00
64080;BME280;51042;49.696;10.808;2023-11-21T02:11:56;98971.75;;;6.94;100.00
64080;BME280;51042;49.696;10.808;2023-11-21T02:14:23;98970.59;;;6.92;100.00
64080;BME280;51042;49.696;10.808;2023-11-21T02:16:50;98971.38;;;6.92;100.00
64080;BME280;51042;49.696;10.808;2023-11-21T02:19:17;98981.13;;;6.93;100.00
64080;BME280;51042;49.696;10.808;2023-11-21T02:21:45;98979.94;;;6.94;100.00
64080;BME280;51042;49.696;10.808;2023-11-21T02:24:10;98980.72;;;6.95;100.00
64080;BME280;51042;49.696;10.808;2023-11-21T02:26:35;98985.03;;;6.96;100.00
64080;BME280;51042;49.696;10.808;2023-11-21T02:29:00;98986.56;;;6.97;100.00
64080;BME280;51042;49.696;10.808;2023-11-21T02:31:26;98987.31;;;6.97;100.00
64080;BME280;51042;49.696;10.808;2023-11-21T02:33:52;99001.38;;;7.00;100.00
64080;BME280;51042;49.696;10.808;2023-11-21T02:36:17;99000.22;;;6.97;100.00
64080;BME280;51042;49.696;10.808;2023-11-21T02:38:43;99008.41;;;6.97;100.00
64080;BME280;51042;49.696;10.808;2023-11-21T02:41:08;99008.75;;;6.99;100.00
64080;BME280;51042;49.696;10.808;2023-11-21T02:43:33;99009.94;;;7.02;100.00
64080;BME280;51042;49.696;10.808;2023-11-21T02:45:58;99010.72;;;7.02;100.00
64080;BME280;51042;49.696;10.808;2023-11-21T02:48:24;99016.97;;;7.03;100.00
64080;BME280;51042;49.696;10.808;2023-11-21T02:50:50;99014.63;;;7.01;100.00
64080;BME280;51042;49.696;10.808;2023-11-21T02:53:18;99019.28;;;7.01;100.00
64080;BME280;51042;49.696;10.808;2023-11-21T02:55:43;99011.50;;;6.99;100.00
64080;BME280;51042;49.696;10.808;2023-11-21T02:58:09;99018.50;;;7.00;100.00
64080;BME280;51042;49.696;10.808;2023-11-21T03:00:34;99014.22;;;6.99;100.00
64080;BME280;51042;49.696;10.808;2023-11-21T03:02:59;99018.13;;;6.98;100.00
64080;BME280;51042;49.696;10.808;2023-11-21T03:05:25;99025.91;;;7.00;100.00
64080;BME280;51042;49.696;10.808;2023-11-21T03:07:50;99028.25;;;6.97;100.00
64080;BME280;51042;49.696;10.808;2023-11-21T03:10:16;99018.50;;;7.00;100.00
64080;BME280;51042;49.696;10.808;2023-11-21T03:12:41;99025.91;;;7.03;100.00
64080;BME280;51042;49.696;10.808;2023-11-21T03:15:07;99032.53;;;7.02;100.00
64080;BME280;51042;49.696;10.808;2023-11-21T03:17:33;99028.63;;;7.03;100.00
64080;BME280;51042;49.696;10.808;2023-11-21T03:20:01;99034.06;;;7.03;100.00
64080;BME280;51042;49.696;10.808;2023-11-21T03:22:29;99037.22;;;7.02;100.00
64080;BME280;51042;49.696;10.808;2023-11-21T03:24:54;99041.50;;;7.03;100.00
64080;BME280;51042;49.696;10.808;2023-11-21T03:27:19;99039.56;;;7.00;100.00
64080;BME280;51042;49.696;10.808;2023-11-21T03:29:44;99048.91;;;6.98;100.00
64080;BME280;51042;49.696;10.808;2023-11-21T03:32:11;99050.88;;;6.98;100.00
64080;BME280;51042;49.696;10.808;2023-11-21T03:34:41;99057.09;;;6.98;100.00
64080;BME280;51042;49.696;10.808;2023-11-21T03:37:17;99063.34;;;6.99;100.00
64080;BME280;51042;49.696;10.808;2023-11-21T03:39:43;99054.41;;;6.95;100.00
64080;BME280;51042;49.696;10.808;2023-11-21T03:42:08;99057.13;;;6.91;100.00
64080;BME280;51042;49.696;10.808;2023-11-21T03:44:34;99052.84;;;6.94;100.00
64080;BME280;51042;49.696;10.808;2023-11-21T03:46:59;99052.44;;;6.95;100.00
64080;BME280;51042;49.696;10.808;2023-11-21T03:49:24;99058.69;;;6.96;100.00
64080;BME280;51042;49.696;10.808;2023-11-21T03:51:49;99069.56;;;7.00;100.00
64080;BME280;51042;49.696;10.808;2023-11-21T03:54:15;99061.78;;;6.98;100.00
64080;BME280;51042;49.696;10.808;2023-11-21T03:56:40;99058.66;;;7.00;100.00
64080;BME280;51042;49.696;10.808;2023-11-21T03:59:05;99063.72;;;6.97;100.00
64080;BME280;51042;49.696;10.808;2023-11-21T04:01:31;99066.44;;;6.97;100.00
64080;BME280;51042;49.696;10.808;2023-11-21T04:03:56;99066.47;;;6.94;100.00
64080;BME280;51042;49.696;10.808;2023-11-21T04:06:22;99068.03;;;6.91;100.00
64080;BME280;51042;49.696;10.808;2023-11-21T04:08:47;99073.91;;;6.90;100.00
64080;BME280;51042;49.696;10.808;2023-11-21T04:11:13;99081.31;;;6.89;100.00
64080;BME280;51042;49.696;10.808;2023-11-21T04:13:38;99085.19;;;6.88;100.00
64080;BME280;51042;49.696;10.808;2023-11-21T04:16:05;99089.47;;;6.86;100.00
64080;BME280;51042;49.696;10.808;2023-11-21T04:18:30;99093.00;;;6.83;100.00
64080;BME280;51042;49.696;10.808;2023-11-21T04:20:55;99094.19;;;6.78;100.00
64080;BME280;51042;49.696;10.808;2023-11-21T04:23:21;99099.66;;;6.78;100.00
64080;BME280;51042;49.696;10.808;2023-11-21T04:25:46;99112.09;;;6.76;100.00
64080;BME280;51042;49.696;10.808;2023-11-21T04:28:11;99116.00;;;6.71;100.00
64080;BME280;51042;49.696;10.808;2023-11-21T04:30:36;99112.88;;;6.69;100.00
64080;BME280;51042;49.696;10.808;2023-11-21T04:33:02;99125.75;;;6.69;100.00
64080;BME280;51042;49.696;10.808;2023-11-21T04:35:27;99124.59;;;6.70;100.00
64080;BME280;51042;49.696;10.808;2023-11-21T04:37:53;99130.03;;;6.70;100.00
64080;BME280;51042;49.696;10.808;2023-11-21T04:40:18;99132.00;;;6.73;100.00
64080;BME280;51042;49.696;10.808;2023-11-21T04:42:45;99139.38;;;6.76;100.00
64080;BME280;51042;49.696;10.808;2023-11-21T04:45:11;99138.19;;;6.80;100.00
64080;BME280;51042;49.696;10.808;2023-11-21T04:47:37;99141.31;;;6.82;100.00
64080;BME280;51042;49.696;10.808;2023-11-21T04:50:02;99149.50;;;6.82;100.00
64080;BME280;51042;49.696;10.808;2023-11-21T04:52:28;99142.50;;;6.85;100.00
64080;BME280;51042;49.696;10.808;2023-11-21T04:54:53;99154.59;;;6.84;100.00
64080;BME280;51042;49.696;10.808;2023-11-21T04:57:19;99154.97;;;6.82;100.00
64080;BME280;51042;49.696;10.808;2023-11-21T04:59:44;99159.25;;;6.83;100.00
64080;BME280;51042;49.696;10.808;2023-11-21T05:02:10;99165.50;;;6.84;100.00
64080;BME280;51042;49.696;10.808;2023-11-21T05:04:35;99169.38;;;6.86;100.00
64080;BME280;51042;49.696;10.808;2023-11-21T05:07:00;99174.03;;;6.86;100.00
64080;BME280;51042;49.696;10.808;2023-11-21T05:09:26;99164.34;;;6.85;100.00
64080;BME280;51042;49.696;10.808;2023-11-21T05:11:52;99169.78;;;6.85;100.00
64080;BME280;51042;49.696;10.808;2023-11-21T05:14:18;99166.66;;;6.83;100.00
64080;BME280;51042;49.696;10.808;2023-11-21T05:16:43;99172.50;;;6.81;100.00
64080;BME280;51042;49.696;10.808;2023-11-21T05:19:08;99179.13;;;6.80;100.00
64080;BME280;51042;49.696;10.808;2023-11-21T05:21:34;99177.97;;;6.78;100.00
64080;BME280;51042;49.696;10.808;2023-11-21T05:24:01;99187.69;;;6.75;100.00
64080;BME280;51042;49.696;10.808;2023-11-21T05:26:26;99181.06;;;6.69;100.00
64080;BME280;51042;49.696;10.808;2023-11-21T05:28:51;99192.00;;;6.66;100.00
64080;BME280;51042;49.696;10.808;2023-11-21T05:31:16;99198.59;;;6.65;100.00
64080;BME280;51042;49.696;10.808;2023-11-21T05:33:48;99202.50;;;6.71;100.00
64080;BME280;51042;49.696;10.808;2023-11-21T05:36:14;99205.63;;;6.73;100.00
64080;BME280;51042;49.696;10.808;2023-11-21T05:38:39;99213.41;;;6.74;100.00
64080;BME280;51042;49.696;10.808;2023-11-21T05:41:04;99215.34;;;6.74;100.00
64080;BME280;51042;49.696;10.808;2023-11-21T05:43:30;99222.38;;;6.75;100.00
64080;BME280;51042;49.696;10.808;2023-11-21T05:45:55;99216.56;;;6.73;100.00
64080;BME280;51042;49.696;10.808;2023-11-21T05:48:21;99222.00;;;6.66;100.00
64080;BME280;51042;49.696;10.808;2023-11-21T05:50:46;99225.47;;;6.63;100.00
64080;BME280;51042;49.696;10.808;2023-11-21T05:53:13;99229.00;;;6.63;100.00
64080;BME280;51042;49.696;10.808;2023-11-21T05:55:40;99233.28;;;6.64;100.00
64080;BME280;51042;49.696;10.808;2023-11-21T05:58:06;99235.25;;;6.67;100.00
64080;BME280;51042;49.696;10.808;2023-11-21T06:00:32;99240.28;;;6.69;100.00
64080;BME280;51042;49.696;10.808;2023-11-21T06:02:58;99238.75;;;6.71;100.00
64080;BME280;51042;49.696;10.808;2023-11-21T06:05:24;99236.41;;;6.70;100.00
64080;BME280;51042;49.696;10.808;2023-11-21T06:07:49;99238.72;;;6.68;100.00
64080;BME280;51042;49.696;10.808;2023-11-21T06:10:15;99254.31;;;6.71;100.00
64080;BME280;51042;49.696;10.808;2023-11-21T06:12:43;99250.81;;;6.74;100.00
64080;BME280;51042;49.696;10.808;2023-11-21T06:15:08;99266.41;;;6.77;100.00
64080;BME280;51042;49.696;10.808;2023-11-21T06:17:34;99273.03;;;6.79;100.00
64080;BME280;51042;49.696;10.808;2023-11-21T06:20:02;99283.19;;;6.82;100.00
64080;BME280;51042;49.696;10.808;2023-11-21T06:22:29;99293.31;;;6.82;100.00
64080;BME280;51042;49.696;10.808;2023-11-21T06:24:55;99292.53;;;6.85;100.00
64080;BME280;51042;49.696;10.808;2023-11-21T06:27:20;99294.09;;;6.86;100.00
64080;BME280;51042;49.696;10.808;2023-11-21T06:29:45;99290.97;;;6.87;100.00
64080;BME280;51042;49.696;10.808;2023-11-21T06:32:12;99296.06;;;6.89;100.00
64080;BME280;51042;49.696;10.808;2023-11-21T06:34:37;99304.63;;;6.91;100.00
64080;BME280;51042;49.696;10.808;2023-11-21T06:37:03;99309.31;;;6.90;100.00
64080;BME280;51042;49.696;10.808;2023-11-21T06:39:28;99297.63;;;6.90;100.00
64080;BME280;51042;49.696;10.808;2023-11-21T06:41:53;99307.75;;;6.89;100.00
64080;BME280;51042;49.696;10.808;2023-11-21T06:44:19;99313.56;;;6.91;100.00
64080;BME280;51042;49.696;10.808;2023-11-21T06:46:44;99313.97;;;6.93;100.00
64080;BME280;51042;49.696;10.808;2023-11-21T06:49:10;99317.91;;;6.96;100.00
64080;BME280;51042;49.696;10.808;2023-11-21T06:51:36;99322.16;;;6.93;100.00
64080;BME280;51042;49.696;10.808;2023-11-21T06:54:01;99319.03;;;6.91;100.00
64080;BME280;51042;49.696;10.808;2023-11-21T06:56:26;99337.00;;;6.96;100.00
64080;BME280;51042;49.696;10.808;2023-11-21T06:58:51;99338.94;;;6.95;100.00
64080;BME280;51042;49.696;10.808;2023-11-21T07:01:19;99337.38;;;6.94;100.00
64080;BME280;51042;49.696;10.808;2023-11-21T07:03:45;99346.34;;;6.98;100.00
64080;BME280;51042;49.696;10.808;2023-11-21T07:06:10;99349.47;;;7.01;100.00
64080;BME280;51042;49.696;10.808;2023-11-21T07:08:36;99349.09;;;7.02;100.00
64080;BME280;51042;49.696;10.808;2023-11-21T07:11:01;99352.97;;;7.01;100.00
64080;BME280;51042;49.696;10.808;2023-11-21T07:13:28;99359.59;;;7.04;100.00
64080;BME280;51042;49.696;10.808;2023-11-21T07:15:53;99364.66;;;7.05;100.00
64080;BME280;51042;49.696;10.808;2023-11-21T07:18:19;99370.91;;;6.98;100.00
64080;BME280;51042;49.696;10.808;2023-11-21T07:20:44;99368.56;;;7.01;100.00
64080;BME280;51042;49.696;10.808;2023-11-21T07:23:09;99379.47;;;7.04;100.00
64080;BME280;51042;49.696;10.808;2023-11-21T07:25:35;99384.97;;;7.08;100.00
64080;BME280;51042;49.696;10.808;2023-11-21T07:28:01;99392.38;;;7.14;100.00
64080;BME280;51042;49.696;10.808;2023-11-21T07:30:26;99397.06;;;7.17;100.00
64080;BME280;51042;49.696;10.808;2023-11-21T07:32:52;99393.56;;;7.20;100.00
64080;BME280;51042;49.696;10.808;2023-11-21T07:35:17;99392.78;;;7.23;100.00
64080;BME280;51042;49.696;10.808;2023-11-21T07:37:42;99406.03;;;7.28;100.00
64080;BME280;51042;49.696;10.808;2023-11-21T07:40:08;99401.38;;;7.32;100.00
64080;BME280;51042;49.696;10.808;2023-11-21T07:42:34;99404.09;;;7.36;100.00
64080;BME280;51042;49.696;10.808;2023-11-21T07:44:59;99411.91;;;7.41;100.00
64080;BME280;51042;49.696;10.808;2023-11-21T07:47:24;99410.38;;;7.44;100.00
64080;BME280;51042;49.696;10.808;2023-11-21T07:49:52;99419.31;;;7.48;100.00
64080;BME280;51042;49.696;10.808;2023-11-21T07:52:17;99421.28;;;7.51;100.00
64080;BME280;51042;49.696;10.808;2023-11-21T07:54:42;99425.97;;;7.54;100.00
64080;BME280;51042;49.696;10.808;2023-11-21T07:57:08;99425.56;;;7.59;100.00
64080;BME280;51042;49.696;10.808;2023-11-21T07:59:33;99430.28;;;7.62;100.00
64080;BME280;51042;49.696;10.808;2023-11-21T08:01:58;99438.06;;;7.63;100.00
64080;BME280;51042;49.696;10.808;2023-11-21T08:04:24;99435.72;;;7.65;100.00
64080;BME280;51042;49.696;10.808;2023-11-21T08:06:49;99427.91;;;7.64;100.00
64080;BME280;51042;49.696;10.808;2023-11-21T08:09:14;99429.47;;;7.58;100.00
64080;BME280;51042;49.696;10.808;2023-11-21T08:11:42;99424.81;;;7.55;100.00
64080;BME280;51042;49.696;10.808;2023-11-21T08:14:07;99422.06;;;7.51;100.00
64080;BME280;51042;49.696;10.808;2023-11-21T08:16:32;99431.44;;;7.61;100.00
64080;BME280;51042;49.696;10.808;2023-11-21T08:18:57;99434.94;;;7.72;100.00
64080;BME280;51042;49.696;10.808;2023-11-21T08:21:23;99433.00;;;7.79;100.00
64080;BME280;51042;49.696;10.808;2023-11-21T08:23:49;99433.78;;;7.84;100.00
64080;BME280;51042;49.696;10.808;2023-11-21T08:26:18;99427.13;;;7.88;100.00
64080;BME280;51042;49.696;10.808;2023-11-21T08:28:43;99430.66;;;7.82;100.00
64080;BME280;51042;49.696;10.808;2023-11-21T08:31:09;99431.06;;;7.80;100.00
64080;BME280;51042;49.696;10.808;2023-11-21T08:33:34;99433.38;;;7.78;100.00
64080;BME280;51042;49.696;10.808;2023-11-21T08:35:59;99438.47;;;7.83;100.00
64080;BME280;51042;49.696;10.808;2023-11-21T08:38:26;99426.38;;;7.91;100.00
64080;BME280;51042;49.696;10.808;2023-11-21T08:40:53;99434.94;;;7.97;100.00
64080;BME280;51042;49.696;10.808;2023-11-21T08:43:19;99434.94;;;8.00;100.00
64080;BME280;51042;49.696;10.808;2023-11-21T08:45:44;99433.75;;;8.01;100.00
64080;BME280;51042;49.696;10.808;2023-11-21T08:48:10;99430.22;;;8.11;100.00
64080;BME280;51042;49.696;10.808;2023-11-21T08:50:36;99436.44;;;8.30;100.00
64080;BME280;51042;49.696;10.808;2023-11-21T08:53:01;99440.75;;;8.34;100.00
64080;BME280;51042;49.696;10.808;2023-11-21T08:55:27;99437.59;;;8.46;100.00
64080;BME280;51042;49.696;10.808;2023-11-21T08:57:53;99430.97;;;8.51;100.00
64080;BME280;51042;49.696;10.808;2023-11-21T09:00:18;99422.34;;;8.52;100.00
64080;BME280;51042;49.696;10.808;2023-11-21T09:02:44;99430.97;;;8.51;100.00
64080;BME280;51042;49.696;10.808;2023-11-21T09:05:10;99423.16;;;8.49;100.00
64080;BME280;51042;49.696;10.808;2023-11-21T09:07:36;99421.63;;;8.31;100.00
64080;BME280;51042;49.696;10.808;2023-11-21T09:10:02;99409.91;;;8.34;100.00
64080;BME280;51042;49.696;10.808;2023-11-21T09:12:28;99414.97;;;8.39;100.00
64080;BME280;51042;49.696;10.808;2023-11-21T09:14:53;99406.78;;;8.35;100.00
64080;BME280;51042;49.696;10.808;2023-11-21T09:17:18;99400.91;;;8.37;100.00
64080;BME280;51042;49.696;10.808;2023-11-21T09:19:44;99402.03;;;8.46;100.00
64080;BME280;51042;49.696;10.808;2023-11-21T09:22:12;99398.53;;;8.49;100.00
64080;BME280;51042;49.696;10.808;2023-11-21T09:24:37;99394.22;;;8.55;100.00
64080;BME280;51042;49.696;10.808;2023-11-21T09:27:02;99388.69;;;8.70;100.00
64080;BME280;51042;49.696;10.808;2023-11-21T09:29:28;99381.19;;;8.81;100.00
64080;BME280;51042;49.696;10.808;2023-11-21T09:31:53;99381.50;;;8.97;100.00
64080;BME280;51042;49.696;10.808;2023-11-21T09:34:20;99366.59;;;9.01;100.00
64080;BME280;51042;49.696;10.808;2023-11-21T09:36:45;99366.16;;;9.10;100.00
64080;BME280;51042;49.696;10.808;2023-11-21T09:39:10;99354.78;;;9.12;100.00
64080;BME280;51042;49.696;10.808;2023-11-21T09:41:59;99351.66;;;9.17;100.00
64080;BME280;51042;49.696;10.808;2023-11-21T09:44:34;99323.13;;;9.11;100.00
64080;BME280;51042;49.696;10.808;2023-11-21T09:47:00;99309.16;;;8.98;100.00
64080;BME280;51042;49.696;10.808;2023-11-21T09:49:26;99293.16;;;8.93;100.00
64080;BME280;51042;49.696;10.808;2023-11-21T09:51:54;99286.84;;;8.99;100.00
64080;BME280;51042;49.696;10.808;2023-11-21T09:54:21;99283.59;;;9.12;100.00
64080;BME280;51042;49.696;10.808;2023-11-21T09:56:46;99273.78;;;9.18;100.00
64080;BME280;51042;49.696;10.808;2023-11-21T09:59:13;99260.44;;;9.23;100.00
64080;BME280;51042;49.696;10.808;2023-11-21T10:01:40;99241.75;;;9.15;100.00
64080;BME280;51042;49.696;10.808;2023-11-21T10:04:06;99231.25;;;9.06;100.00
64080;BME280;51042;49.696;10.808;2023-11-21T10:06:36;99212.78;;;9.14;100.00
64080;BME280;51042;49.696;10.808;2023-11-21T10:09:02;99201.50;;;9.08;100.00
64080;BME280;51042;49.696;10.808;2023-11-21T10:11:28;99191.72;;;9.11;100.00
64080;BME280;51042;49.696;10.808;2023-11-21T10:13:55;99179.69;;;8.97;100.00
64080;BME280;51042;49.696;10.808;2023-11-21T10:16:22;99166.13;;;8.83;100.00
64080;BME280;51042;49.696;10.808;2023-11-21T10:18:51;99168.75;;;8.97;100.00
64080;BME280;51042;49.696;10.808;2023-11-21T10:21:17;99166.81;;;8.94;100.00
64080;BME280;51042;49.696;10.808;2023-11-21T10:23:43;99152.34;;;8.97;100.00
64080;BME280;51042;49.696;10.808;2023-11-21T10:26:09;99144.84;;;9.01;100.00
64080;BME280;51042;49.696;10.808;2023-11-21T10:28:41;99136.56;;;9.09;100.00
64080;BME280;51042;49.696;10.808;2023-11-21T10:31:06;99137.16;;;9.27;100.00
64080;BME280;51042;49.696;10.808;2023-11-21T10:33:32;99122.22;;;9.35;100.00
64080;BME280;51042;49.696;10.808;2023-11-21T10:35:57;99108.22;;;9.26;100.00
64080;BME280;51042;49.696;10.808;2023-11-21T10:38:23;99098.44;;;9.28;100.00
64080;BME280;51042;49.696;10.808;2023-11-21T10:40:49;99070.66;;;9.26;100.00
64080;BME280;51042;49.696;10.808;2023-11-21T10:43:14;99068.16;;;9.39;100.00
64080;BME280;51042;49.696;10.808;2023-11-21T10:45:40;99054.50;;;9.35;100.00
64080;BME280;51042;49.696;10.808;2023-11-21T10:48:06;99041.69;;;9.29;100.00
64080;BME280;51042;49.696;10.808;2023-11-21T10:50:36;99020.66;;;9.19;100.00
64080;BME280;51042;49.696;10.808;2023-11-21T10:53:04;99014.38;;;9.22;100.00
64080;BME280;51042;49.696;10.808;2023-11-21T10:55:30;99005.78;;;9.23;100.00
64080;BME280;51042;49.696;10.808;2023-11-21T10:57:57;99002.34;;;9.16;100.00
64080;BME280;51042;49.696;10.808;2023-11-21T11:00:23;98996.81;;;9.19;100.00
64080;BME280;51042;49.696;10.808;2023-11-21T11:02:50;98992.09;;;9.20;100.00
64080;BME280;51042;49.696;10.808;2023-11-21T11:05:16;98981.53;;;9.22;100.00
64080;BME280;51042;49.696;10.808;2023-11-21T11:07:44;98991.16;;;9.33;100.00
64080;BME280;51042;49.696;10.808;2023-11-21T11:10:09;98982.06;;;9.40;100.00
64080;BME280;51042;49.696;10.808;2023-11-21T11:12:39;98967.44;;;9.50;100.00
64080;BME280;51042;49.696;10.808;2023-11-21T11:15:05;98961.94;;;9.50;100.00
64080;BME280;51042;49.696;10.808;2023-11-21T11:17:31;98958.34;;;9.57;100.00
64080;BME280;51042;49.696;10.808;2023-11-21T11:19:58;98927.63;;;9.42;100.00
64080;BME280;51042;49.696;10.808;2023-11-21T11:22:34;98922.72;;;9.57;100.00
64080;BME280;51042;49.696;10.808;2023-11-21T11:32:53;98870.59;;;9.83;100.00
64080;BME280;51042;49.696;10.808;2023-11-21T11:35:47;98861.13;;;9.88;100.00
64080;BME280;51042;49.696;10.808;2023-11-21T11:38:06;98839.69;;;9.83;100.00
64080;BME280;51042;49.696;10.808;2023-11-21T11:40:46;98830.81;;;9.75;100.00
64080;BME280;51042;49.696;10.808;2023-11-21T11:43:11;98825.31;;;9.75;100.00
64080;BME280;51042;49.696;10.808;2023-11-21T11:45:37;98834.00;;;9.94;100.00
64080;BME280;51042;49.696;10.808;2023-11-21T11:48:06;98825.94;;;10.06;100.00
64080;BME280;51042;49.696;10.808;2023-11-21T11:50:32;98818.69;;;10.16;100.00
64080;BME280;51042;49.696;10.808;2023-11-21T11:53:11;98823.47;;;10.32;100.00
64080;BME280;51042;49.696;10.808;2023-11-21T11:55:37;98808.44;;;10.20;100.00
64080;BME280;51042;49.696;10.808;2023-11-21T11:58:04;98790.47;;;10.15;100.00
64080;BME280;51042;49.696;10.808;2023-11-21T12:02:58;98779.94;;;10.14;100.00
64080;BME280;51042;49.696;10.808;2023-11-21T12:05:31;98761.88;;;9.97;100.00
64080;BME280;51042;49.696;10.808;2023-11-21T12:08:02;98758.34;;;9.76;100.00
64080;BME280;51042;49.696;10.808;2023-11-21T12:10:29;98755.38;;;9.67;100.00
64080;BME280;51042;49.696;10.808;2023-11-21T12:12:55;98766.19;;;9.55;100.00
64080;BME280;51042;49.696;10.808;2023-11-21T12:15:20;98756.59;;;9.43;100.00
64080;BME280;51042;49.696;10.808;2023-11-21T12:17:47;98752.16;;;9.29;100.00
64080;BME280;51042;49.696;10.808;2023-11-21T12:20:12;98744.47;;;9.21;100.00
64080;BME280;51042;49.696;10.808;2023-11-21T12:22:55;98753.22;;;9.12;100.00
64080;BME280;51042;49.696;10.808;2023-11-21T12:25:21;98758.53;;;8.99;100.00
64080;BME280;51042;49.696;10.808;2023-11-21T12:27:47;98775.56;;;8.84;100.00
64080;BME280;51042;49.696;10.808;2023-11-21T12:30:14;98791.28;;;8.80;100.00
64080;BME280;51042;49.696;10.808;2023-11-21T12:32:40;98803.84;;;9.00;100.00
64080;BME280;51042;49.696;10.808;2023-11-21T12:35:06;98809.38;;;8.97;100.00
64080;BME280;51042;49.696;10.808;2023-11-21T12:37:32;98813.72;;;9.45;100.00
64080;BME280;51042;49.696;10.808;2023-11-21T12:39:57;98819.88;;;10.15;100.00
64080;BME280;51042;49.696;10.808;2023-11-21T12:42:23;98808.97;;;10.71;100.00
64080;BME280;51042;49.696;10.808;2023-11-21T12:44:48;98762.50;;;10.96;100.00
64080;BME280;51042;49.696;10.808;2023-11-21T12:47:16;98729.88;;;10.66;100.00
64080;BME280;51042;49.696;10.808;2023-11-21T12:49:41;98708.84;;;10.59;100.00
64080;BME280;51042;49.696;10.808;2023-11-21T12:52:09;98681.34;;;10.27;100.00
64080;BME280;51042;49.696;10.808;2023-11-21T12:54:34;98667.38;;;10.37;100.00